Terminal Aerodrome Forecast
Issued by NWS Sterling, VA

Home | Current Version | Previous Version | Text Only | Print | Product List | Glossary On
Versions: 1 2 3 4 5 6 7 8 9 10 11 12 13 14 15 16 17 18 19 20 21 22 23
316
FTUS41 KLWX 230755 AAB
TAFBWI
TAF AMD
KBWI 230755Z 2308/2412 35005KT 2SM BR BKN015
      TEMPO 2308/2312 1SM BR OVC003
     FM231300 04006KT P6SM BKN060
     FM231800 08007KT P6SM OVC035
     FM240500 04004KT P6SM OVC008=

USA.gov is the U.S. government's official web portal to all federal, state and local government web resources and services.